Time;durP1;ratioP1;P1;durP2;ratioP2;P2;SDS_P1;SDS_P2;PMS_P1;PMS_P2;Temp;Humidity;BMP_temperature;BMP_pressure;BME280_temperature;BME280_humidity;BME280_pressure;Samples;Min_cycle;Max_cycle;Signal;HPM_P1;HPM_P2
2023/12/18 00:01:13;;;;;;;20.55;11.30;;;6.20;99.90;;;;;;5033394;28;20166;-49
2023/12/18 00:03:38;;;;;;;18.60;11.40;;;6.20;99.90;;;;;;5032389;28;20013;-52
2023/12/18 00:06:04;;;;;;;19.17;12.10;;;6.20;99.90;;;;;;5014175;28;20018;-50
2023/12/18 00:08:30;;;;;;;19.65;11.48;;;6.20;99.90;;;;;;5032932;28;20441;-52
2023/12/18 00:10:55;;;;;;;19.42;12.23;;;6.10;99.90;;;;;;5032074;28;20040;-52
2023/12/18 00:13:21;;;;;;;19.30;12.07;;;6.10;99.90;;;;;;5033448;28;20088;-51
2023/12/18 00:15:46;;;;;;;20.55;12.45;;;6.10;99.90;;;;;;5031496;28;20063;-52
2023/12/18 00:18:12;;;;;;;20.92;12.77;;;6.00;99.90;;;;;;5029431;28;20091;-50
2023/12/18 00:20:38;;;;;;;22.15;13.30;;;6.00;99.90;;;;;;5031823;28;20644;-50
2023/12/18 00:23:03;;;;;;;23.38;14.10;;;6.00;99.90;;;;;;5030116;28;20068;-51
2023/12/18 00:25:29;;;;;;;19.85;12.20;;;6.00;99.90;;;;;;5032329;28;20425;-52
2023/12/18 00:27:55;;;;;;;20.20;12.43;;;6.00;99.90;;;;;;5030235;28;20597;-50
2023/12/18 00:30:20;;;;;;;24.92;13.90;;;6.00;99.90;;;;;;5032521;28;20045;-51
2023/12/18 00:32:46;;;;;;;18.75;11.35;;;5.90;99.90;;;;;;5030421;28;20494;-49
2023/12/18 00:35:12;;;;;;;19.90;11.90;;;5.90;99.90;;;;;;5031112;28;20138;-50
2023/12/18 00:37:37;;;;;;;20.73;12.55;;;5.90;99.90;;;;;;5032520;28;20029;-53
2023/12/18 00:40:03;;;;;;;22.52;12.98;;;5.90;99.90;;;;;;5032317;28;20033;-48
2023/12/18 00:42:29;;;;;;;20.90;12.52;;;5.90;99.90;;;;;;5033192;28;20316;-50
2023/12/18 00:44:54;;;;;;;27.15;13.68;;;5.90;99.90;;;;;;5031649;28;20013;-50
2023/12/18 00:47:20;;;;;;;20.63;12.90;;;5.80;99.90;;;;;;5033014;28;20126;-50
2023/12/18 00:49:46;;;;;;;21.52;13.30;;;5.80;99.90;;;;;;5032677;28;20032;-51
2023/12/18 00:52:11;;;;;;;26.00;14.50;;;5.80;99.90;;;;;;5032304;28;20097;-51
2023/12/18 00:54:37;;;;;;;21.63;12.77;;;5.80;99.90;;;;;;5032233;28;20022;-50
2023/12/18 00:57:03;;;;;;;23.27;13.35;;;5.80;99.90;;;;;;5031794;28;20048;-52
2023/12/18 00:59:28;;;;;;;22.55;13.07;;;5.80;99.90;;;;;;5033765;28;20074;-50
2023/12/18 01:01:54;;;;;;;21.92;12.57;;;5.80;99.90;;;;;;5032314;28;20102;-50
2023/12/18 01:04:19;;;;;;;19.48;12.10;;;5.80;99.90;;;;;;5033173;28;20037;-51
2023/12/18 01:06:45;;;;;;;25.60;13.68;;;5.70;99.90;;;;;;5031295;28;20493;-49
2023/12/18 01:09:12;;;;;;;21.98;12.45;;;5.70;99.90;;;;;;5014934;28;20018;-51
2023/12/18 01:11:38;;;;;;;19.50;11.88;;;5.70;99.90;;;;;;5032597;28;20102;-50
2023/12/18 01:14:04;;;;;;;22.10;13.30;;;5.60;99.90;;;;;;5032029;28;20108;-51
2023/12/18 01:16:30;;;;;;;22.95;12.02;;;5.60;99.90;;;;;;5015067;28;20075;-49
2023/12/18 01:18:56;;;;;;;19.30;12.90;;;5.60;99.90;;;;;;5031757;28;20423;-49
2023/12/18 01:21:21;;;;;;;22.63;13.43;;;5.60;99.90;;;;;;5033614;28;20021;-49
2023/12/18 01:23:47;;;;;;;25.00;13.63;;;5.60;99.90;;;;;;5031843;28;20021;-52
2023/12/18 01:26:13;;;;;;;20.13;12.55;;;5.60;99.90;;;;;;5032178;28;20478;-51
2023/12/18 01:28:40;;;;;;;21.10;13.10;;;5.60;99.90;;;;;;5032871;28;20136;-50
2023/12/18 01:31:07;;;;;;;21.58;12.98;;;5.60;99.90;;;;;;5032169;28;20026;-49
2023/12/18 01:33:33;;;;;;;23.38;13.35;;;5.60;99.90;;;;;;5029545;28;20041;-52
2023/12/18 01:35:59;;;;;;;22.00;13.13;;;5.60;99.90;;;;;;5031527;28;20032;-51
2023/12/18 01:38:25;;;;;;;22.27;13.23;;;5.60;99.90;;;;;;5034035;28;20026;-51
2023/12/18 01:40:50;;;;;;;26.13;14.50;;;5.50;99.90;;;;;;5032017;28;20030;-51
2023/12/18 01:43:28;;;;;;;21.02;13.73;;;5.50;99.90;;;;;;5033617;28;20100;-52
2023/12/18 01:46:01;;;;;;;23.42;13.10;;;5.50;99.90;;;;;;5031790;28;20021;-51
2023/12/18 01:48:28;;;;;;;21.20;13.43;;;5.50;99.90;;;;;;5034577;28;20021;-52
2023/12/18 01:50:54;;;;;;;23.92;13.70;;;5.50;99.90;;;;;;5030021;28;20249;-53
2023/12/18 01:53:31;;;;;;;24.23;14.52;;;5.50;99.90;;;;;;5033871;28;20032;-49
2023/12/18 01:55:57;;;;;;;21.42;13.57;;;5.50;99.90;;;;;;5029914;28;20018;-52
2023/12/18 01:58:24;;;;;;;22.95;14.20;;;5.50;99.90;;;;;;5032451;28;20029;-52
2023/12/18 02:00:51;;;;;;;24.80;13.98;;;5.50;99.90;;;;;;5032261;28;20025;-53
2023/12/18 02:03:18;;;;;;;23.08;13.65;;;5.50;99.90;;;;;;5032082;28;20079;-52
2023/12/18 02:05:44;;;;;;;24.85;13.38;;;5.50;99.90;;;;;;5030930;28;20459;-51
2023/12/18 02:08:10;;;;;;;25.67;14.35;;;5.50;99.90;;;;;;5009237;28;20498;-52
2023/12/18 02:10:37;;;;;;;26.10;13.55;;;5.50;99.90;;;;;;5027250;28;20052;-49
2023/12/18 02:13:03;;;;;;;24.17;13.60;;;5.50;99.90;;;;;;5027009;28;20021;-49
2023/12/18 02:15:29;;;;;;;22.67;13.02;;;5.50;99.90;;;;;;5031020;28;20041;-51
2023/12/18 02:17:54;;;;;;;21.83;12.30;;;5.50;99.90;;;;;;5032163;28;20056;-52
2023/12/18 02:20:20;;;;;;;23.88;14.02;;;5.50;99.90;;;;;;5016273;28;20382;-50
2023/12/18 02:22:45;;;;;;;22.20;13.23;;;5.50;99.90;;;;;;5031778;28;20099;-52
2023/12/18 02:25:11;;;;;;;24.92;13.85;;;5.50;99.90;;;;;;5030080;28;20018;-50
2023/12/18 02:27:38;;;;;;;21.50;14.18;;;5.50;99.90;;;;;;5034088;28;20025;-52
2023/12/18 02:30:04;;;;;;;22.58;12.95;;;5.50;99.90;;;;;;5032692;28;20018;-49
2023/12/18 02:32:30;;;;;;;26.92;15.68;;;5.50;99.90;;;;;;5035054;28;20025;-51
2023/12/18 02:34:55;;;;;;;22.30;13.77;;;5.50;99.90;;;;;;5032568;28;20597;-52
2023/12/18 02:37:23;;;;;;;20.58;12.88;;;5.60;99.90;;;;;;5034183;28;20036;-48
2023/12/18 02:39:48;;;;;;;25.95;13.15;;;5.60;99.90;;;;;;5032644;28;20367;-52
2023/12/18 02:42:14;;;;;;;27.05;13.23;;;5.60;99.90;;;;;;5033682;28;20026;-52
2023/12/18 02:44:40;;;;;;;27.42;13.75;;;5.60;99.90;;;;;;5033538;28;20029;-52
2023/12/18 02:47:06;;;;;;;20.48;13.13;;;5.60;99.90;;;;;;5014376;28;20509;-52
2023/12/18 02:49:31;;;;;;;20.42;12.35;;;5.60;99.90;;;;;;5032931;28;20100;-49
2023/12/18 02:51:57;;;;;;;21.80;13.60;;;5.50;99.90;;;;;;5033103;28;20049;-51
2023/12/18 02:54:22;;;;;;;23.60;13.30;;;5.50;99.90;;;;;;5035458;28;20036;-48
2023/12/18 02:56:48;;;;;;;25.75;13.20;;;5.50;99.90;;;;;;5014921;28;20101;-52
2023/12/18 02:59:14;;;;;;;27.15;14.38;;;5.50;99.90;;;;;;5033773;28;20394;-49
2023/12/18 03:01:39;;;;;;;20.08;12.30;;;5.50;99.90;;;;;;5033924;28;20025;-48
2023/12/18 03:04:05;;;;;;;24.88;13.18;;;5.50;99.90;;;;;;5032520;28;20095;-52
2023/12/18 03:06:30;;;;;;;21.70;13.75;;;5.40;99.90;;;;;;5032233;28;20108;-52
2023/12/18 03:08:56;;;;;;;20.13;13.48;;;5.50;99.90;;;;;;5032762;28;20121;-51
2023/12/18 03:11:22;;;;;;;22.65;13.57;;;5.40;99.90;;;;;;5035058;28;20251;-52
2023/12/18 03:13:47;;;;;;;24.10;13.25;;;5.40;99.90;;;;;;5033282;28;20112;-52
2023/12/18 03:16:14;;;;;;;27.65;15.38;;;5.40;99.90;;;;;;5017857;28;20545;-51
2023/12/18 03:18:40;;;;;;;27.58;15.00;;;5.40;99.90;;;;;;5020875;28;20432;-52
2023/12/18 03:21:10;;;;;;;33.65;15.77;;;5.40;99.90;;;;;;5033499;28;20022;-50
2023/12/18 03:23:36;;;;;;;28.45;15.15;;;5.40;99.90;;;;;;5033307;28;20508;-50
2023/12/18 03:26:01;;;;;;;30.63;15.82;;;5.40;99.90;;;;;;5035647;28;20101;-52
2023/12/18 03:28:27;;;;;;;30.63;15.52;;;5.40;99.90;;;;;;5039567;28;20100;-52
2023/12/18 03:30:53;;;;;;;32.35;16.98;;;5.40;99.90;;;;;;5036765;28;20022;-51
2023/12/18 03:33:19;;;;;;;29.52;18.10;;;5.40;99.90;;;;;;5038340;28;20017;-51
2023/12/18 03:35:45;;;;;;;30.10;18.45;;;5.40;99.90;;;;;;5014928;28;20438;-50
2023/12/18 03:38:12;;;;;;;29.02;17.30;;;5.40;99.90;;;;;;5036550;28;20113;-50
2023/12/18 03:40:38;;;;;;;27.92;15.43;;;5.50;99.90;;;;;;5034865;28;20033;-50
2023/12/18 03:43:04;;;;;;;33.90;18.98;;;5.50;99.90;;;;;;5036237;28;20146;-49
2023/12/18 03:45:30;;;;;;;35.50;19.58;;;5.50;99.90;;;;;;5035326;28;20035;-51
2023/12/18 03:47:55;;;;;;;27.90;17.63;;;5.50;99.90;;;;;;5036129;28;20096;-49
2023/12/18 03:50:21;;;;;;;35.03;18.85;;;5.60;99.90;;;;;;5034877;28;20029;-51
2023/12/18 03:52:46;;;;;;;32.38;19.38;;;5.70;99.90;;;;;;5038370;28;20053;-52
2023/12/18 03:55:12;;;;;;;30.33;19.15;;;5.70;99.90;;;;;;5037611;28;20136;-52
2023/12/18 03:57:39;;;;;;;37.42;19.92;;;5.70;99.90;;;;;;5035188;28;20510;-52
2023/12/18 04:00:05;;;;;;;36.00;19.02;;;5.80;99.90;;;;;;5033646;28;20021;-53
2023/12/18 04:02:31;;;;;;;31.02;17.38;;;5.70;99.90;;;;;;5033791;28;20292;-52
2023/12/18 04:04:57;;;;;;;32.25;19.90;;;5.80;99.90;;;;;;5036924;28;20080;-51
2023/12/18 04:07:22;;;;;;;33.95;19.30;;;5.80;99.90;;;;;;5038690;28;20025;-52
2023/12/18 04:09:48;;;;;;;34.20;18.55;;;5.80;99.90;;;;;;5037790;28;20461;-50
2023/12/18 04:12:13;;;;;;;37.38;20.30;;;5.80;99.90;;;;;;5037832;28;20013;-51
2023/12/18 04:14:40;;;;;;;26.85;18.08;;;5.90;99.90;;;;;;5021038;28;20040;-50
2023/12/18 04:17:06;;;;;;;37.35;18.52;;;5.90;99.90;;;;;;5033569;28;20018;-49
2023/12/18 04:19:32;;;;;;;33.75;18.45;;;5.90;99.90;;;;;;5036847;28;20030;-49
2023/12/18 04:21:58;;;;;;;38.90;19.45;;;5.80;99.90;;;;;;5037235;28;20349;-52
2023/12/18 04:24:24;;;;;;;35.80;18.88;;;5.80;99.90;;;;;;5039468;28;20084;-52
2023/12/18 04:26:49;;;;;;;32.03;20.17;;;5.80;99.90;;;;;;5036695;28;20045;-52
2023/12/18 04:29:16;;;;;;;39.13;17.65;;;5.80;99.90;;;;;;5037534;28;20020;-51
2023/12/18 04:31:42;;;;;;;32.38;18.25;;;5.80;99.90;;;;;;5038538;28;20024;-52
2023/12/18 04:34:08;;;;;;;32.97;18.90;;;5.80;99.90;;;;;;5036761;28;20022;-51
2023/12/18 04:36:38;;;;;;;36.00;19.38;;;5.80;99.90;;;;;;5039896;28;20075;-52
2023/12/18 04:39:04;;;;;;;33.45;18.98;;;5.70;99.90;;;;;;5036868;28;20469;-50
2023/12/18 04:41:29;;;;;;;36.08;19.27;;;5.70;99.90;;;;;;5040367;28;20119;-52
2023/12/18 04:43:55;;;;;;;31.65;17.13;;;5.80;99.90;;;;;;5037182;28;20064;-52
2023/12/18 04:46:20;;;;;;;30.40;18.27;;;5.80;99.90;;;;;;5038129;28;20553;-51
2023/12/18 04:48:46;;;;;;;31.30;18.08;;;5.80;99.90;;;;;;5038333;28;20017;-50
2023/12/18 04:51:11;;;;;;;29.35;16.38;;;5.90;99.90;;;;;;5037731;28;20032;-52
2023/12/18 04:53:37;;;;;;;25.80;17.27;;;5.90;99.90;;;;;;5040226;28;20021;-53
2023/12/18 04:56:04;;;;;;;31.27;18.00;;;5.90;99.90;;;;;;5036522;28;20025;-51
2023/12/18 04:58:31;;;;;;;36.08;17.90;;;5.90;99.90;;;;;;5040066;28;20017;-50
2023/12/18 05:00:57;;;;;;;34.05;17.58;;;5.90;99.90;;;;;;5036808;28;20059;-49
2023/12/18 05:03:23;;;;;;;27.92;16.60;;;6.00;99.90;;;;;;5039033;28;20457;-50
2023/12/18 05:05:48;;;;;;;27.55;17.20;;;6.00;99.90;;;;;;5037925;28;20025;-52
2023/12/18 05:08:14;;;;;;;31.85;18.35;;;6.10;99.90;;;;;;5037570;28;20336;-49
2023/12/18 05:10:40;;;;;;;33.42;17.52;;;6.10;99.90;;;;;;5039497;28;20035;-51
2023/12/18 05:13:05;;;;;;;34.88;16.60;;;6.10;99.90;;;;;;5036873;28;20059;-53
2023/12/18 05:15:31;;;;;;;28.88;16.65;;;6.10;99.90;;;;;;5036277;28;20087;-51
2023/12/18 05:17:56;;;;;;;31.95;17.30;;;6.20;99.90;;;;;;5037680;28;20444;-53
2023/12/18 05:20:22;;;;;;;30.35;16.75;;;6.20;99.90;;;;;;5021450;28;20052;-50
2023/12/18 05:22:48;;;;;;;29.90;17.67;;;6.20;99.90;;;;;;5038610;28;20525;-53
2023/12/18 05:25:14;;;;;;;29.30;18.15;;;6.20;99.90;;;;;;5037894;28;20049;-51
2023/12/18 05:27:39;;;;;;;24.83;15.95;;;6.20;99.90;;;;;;5039902;28;20070;-54
2023/12/18 05:30:05;;;;;;;32.45;15.70;;;6.20;99.90;;;;;;5037001;28;20022;-53
2023/12/18 05:32:31;;;;;;;29.98;17.75;;;6.30;99.90;;;;;;5040304;28;20021;-54
2023/12/18 05:34:57;;;;;;;34.40;17.05;;;6.30;99.90;;;;;;5037589;28;20029;-51
2023/12/18 05:37:22;;;;;;;29.80;16.70;;;6.30;99.90;;;;;;5039350;28;20030;-50
2023/12/18 05:39:48;;;;;;;26.42;16.83;;;6.30;99.90;;;;;;5037566;28;20036;-52
2023/12/18 05:42:19;;;;;;;27.75;15.38;;;6.30;99.90;;;;;;5037950;28;20021;-50
2023/12/18 05:44:45;;;;;;;28.20;16.35;;;6.30;99.90;;;;;;5039128;28;20040;-49
2023/12/18 05:47:10;;;;;;;33.00;17.35;;;6.30;99.90;;;;;;5037177;28;20457;-49
2023/12/18 05:49:38;;;;;;;27.00;15.40;;;6.30;99.90;;;;;;5022220;28;20024;-52
2023/12/18 05:52:03;;;;;;;29.02;16.58;;;6.30;99.90;;;;;;5036441;28;20479;-52
2023/12/18 05:54:29;;;;;;;28.00;16.88;;;6.40;99.90;;;;;;5039584;28;20021;-50
2023/12/18 05:56:55;;;;;;;25.45;16.17;;;6.40;99.90;;;;;;5037375;28;20241;-52
2023/12/18 05:59:20;;;;;;;25.90;15.80;;;6.40;99.90;;;;;;5038564;28;20040;-53
2023/12/18 06:01:46;;;;;;;32.97;15.38;;;6.40;99.90;;;;;;5039035;28;20067;-52
2023/12/18 06:04:12;;;;;;;31.95;14.75;;;6.40;99.90;;;;;;5037400;28;20107;-52
2023/12/18 06:06:37;;;;;;;25.73;15.68;;;6.40;99.90;;;;;;5039964;28;20028;-52
2023/12/18 06:09:03;;;;;;;27.20;15.25;;;6.40;99.90;;;;;;5037285;28;20030;-52
2023/12/18 06:11:29;;;;;;;26.10;16.05;;;6.40;99.90;;;;;;5022868;28;20021;-52
2023/12/18 06:13:55;;;;;;;27.17;17.67;;;6.40;99.90;;;;;;5038607;28;20064;-51
2023/12/18 06:16:20;;;;;;;26.38;15.57;;;6.30;99.90;;;;;;5038839;28;20045;-52
2023/12/18 06:18:46;;;;;;;25.33;14.43;;;6.40;99.90;;;;;;5039596;28;20075;-52
2023/12/18 06:21:11;;;;;;;29.02;15.00;;;6.40;99.90;;;;;;5037931;28;20133;-51
2023/12/18 06:23:37;;;;;;;21.63;14.43;;;6.40;99.90;;;;;;5040542;28;20021;-50
2023/12/18 06:26:05;;;;;;;23.65;14.18;;;6.30;99.90;;;;;;5036910;28;20021;-50
2023/12/18 06:28:30;;;;;;;25.92;14.38;;;6.30;99.90;;;;;;5040769;28;20032;-52
2023/12/18 06:30:56;;;;;;;25.50;14.38;;;6.40;99.90;;;;;;5038514;28;20413;-49
2023/12/18 06:33:21;;;;;;;26.33;15.23;;;6.30;99.90;;;;;;5021585;28;20100;-51
2023/12/18 06:35:47;;;;;;;26.52;15.45;;;6.30;99.90;;;;;;5039650;28;20031;-52
2023/12/18 06:38:13;;;;;;;24.40;13.95;;;6.30;99.90;;;;;;5038164;28;20049;-50
2023/12/18 06:40:39;;;;;;;24.98;15.20;;;6.30;99.90;;;;;;5040677;28;20442;-51
2023/12/18 06:43:04;;;;;;;23.42;14.18;;;6.30;99.90;;;;;;5037260;28;20053;-49
2023/12/18 06:45:30;;;;;;;22.40;14.43;;;6.30;99.90;;;;;;5039575;28;20043;-53
2023/12/18 06:47:55;;;;;;;23.55;13.50;;;6.40;99.90;;;;;;5038730;28;20124;-52
2023/12/18 06:50:21;;;;;;;28.05;14.40;;;6.40;99.90;;;;;;5039808;28;20018;-52
2023/12/18 06:52:47;;;;;;;27.83;14.18;;;6.30;99.90;;;;;;5040262;28;20242;-50
2023/12/18 06:55:13;;;;;;;22.98;13.65;;;6.40;99.90;;;;;;5041087;28;20025;-52
2023/12/18 06:57:38;;;;;;;26.92;15.18;;;6.40;99.90;;;;;;5037133;28;20271;-52
2023/12/18 07:00:05;;;;;;;26.50;15.35;;;6.40;99.90;;;;;;5041148;28;20064;-52
2023/12/18 07:02:30;;;;;;;30.58;15.57;;;6.40;99.90;;;;;;5037438;28;20484;-52
2023/12/18 07:04:56;;;;;;;28.50;16.30;;;6.40;99.90;;;;;;5041982;28;20033;-50
2023/12/18 07:07:22;;;;;;;31.10;16.63;;;6.40;99.90;;;;;;5036452;28;20502;-52
2023/12/18 07:09:48;;;;;;;30.88;16.33;;;6.40;99.90;;;;;;5044018;28;20017;-51
2023/12/18 07:12:14;;;;;;;29.88;16.67;;;6.30;99.90;;;;;;5042132;28;20021;-52
2023/12/18 07:14:42;;;;;;;25.25;15.82;;;6.30;99.90;;;;;;5044755;28;20033;-53
2023/12/18 07:17:07;;;;;;;32.33;16.80;;;6.40;99.90;;;;;;5041682;28;20032;-53
2023/12/18 07:19:33;;;;;;;34.72;17.90;;;6.30;99.90;;;;;;5026845;28;20021;-53
2023/12/18 07:21:59;;;;;;;36.75;17.58;;;6.40;99.90;;;;;;5024633;28;20086;-53
2023/12/18 07:24:25;;;;;;;28.98;17.83;;;6.30;99.90;;;;;;5014434;28;20339;-52
2023/12/18 07:26:50;;;;;;;33.65;16.77;;;6.30;99.90;;;;;;5029707;28;20029;-53
2023/12/18 07:29:16;;;;;;;32.45;17.05;;;6.30;99.90;;;;;;5035085;28;20025;-53
2023/12/18 07:31:41;;;;;;;29.70;16.58;;;6.30;99.90;;;;;;5029867;28;20053;-52
2023/12/18 07:34:07;;;;;;;31.77;17.10;;;6.30;99.90;;;;;;5029324;28;20049;-51
2023/12/18 07:36:35;;;;;;;29.42;15.93;;;6.30;99.90;;;;;;5030015;28;20033;-53
2023/12/18 07:39:01;;;;;;;33.90;17.05;;;6.30;99.90;;;;;;5030091;28;20017;-53
2023/12/18 07:41:30;;;;;;;31.50;16.70;;;6.30;99.90;;;;;;5028809;28;20128;-54
2023/12/18 07:43:56;;;;;;;31.25;15.90;;;6.30;99.90;;;;;;5030487;28;20028;-52
2023/12/18 07:46:22;;;;;;;30.10;17.38;;;6.30;99.90;;;;;;5043568;28;20443;-53
2023/12/18 07:48:48;;;;;;;26.35;16.45;;;6.30;99.90;;;;;;5044973;28;20021;-51
2023/12/18 07:51:14;;;;;;;25.02;15.50;;;6.30;99.90;;;;;;5042973;28;20501;-54
2023/12/18 07:53:40;;;;;;;28.80;16.30;;;6.30;99.90;;;;;;5027753;28;20025;-53
2023/12/18 07:56:06;;;;;;;30.60;16.35;;;6.40;99.90;;;;;;5024448;28;20087;-53
2023/12/18 07:58:31;;;;;;;33.70;16.63;;;6.40;99.90;;;;;;5033729;28;20083;-53
2023/12/18 08:00:57;;;;;;;30.08;16.40;;;6.30;99.90;;;;;;5034520;28;20113;-53
2023/12/18 08:03:23;;;;;;;26.63;16.88;;;6.30;99.90;;;;;;5036984;28;20030;-52
2023/12/18 08:05:48;;;;;;;32.13;17.90;;;6.30;99.90;;;;;;5044654;28;20478;-53
2023/12/18 08:08:14;;;;;;;25.73;16.10;;;6.30;99.90;;;;;;5041626;28;20074;-54
2023/12/18 08:10:40;;;;;;;28.17;16.45;;;6.30;99.90;;;;;;5012037;28;20179;-50
2023/12/18 08:13:05;;;;;;;29.88;16.58;;;6.30;99.90;;;;;;5028418;28;20014;-50
2023/12/18 08:15:31;;;;;;;31.38;18.30;;;6.30;99.90;;;;;;5028526;28;20451;-50
2023/12/18 08:17:57;;;;;;;30.92;16.63;;;6.30;99.90;;;;;;5011791;28;20025;-53
2023/12/18 08:20:23;;;;;;;33.42;17.60;;;6.30;99.90;;;;;;5029243;28;20398;-50
2023/12/18 08:22:48;;;;;;;33.42;17.77;;;6.30;99.90;;;;;;5029421;28;20117;-53
2023/12/18 08:25:14;;;;;;;31.10;18.48;;;6.30;99.90;;;;;;5024080;28;20025;-53
2023/12/18 08:27:40;;;;;;;30.70;18.52;;;6.30;99.90;;;;;;5040138;28;20056;-52
2023/12/18 08:30:08;;;;;;;31.80;17.75;;;6.30;99.90;;;;;;5042997;28;20028;-54
2023/12/18 08:32:34;;;;;;;31.98;19.17;;;6.30;99.90;;;;;;5044941;28;20040;-53
2023/12/18 08:35:01;;;;;;;31.27;18.83;;;6.30;99.90;;;;;;5043311;28;20029;-52
2023/12/18 08:37:27;;;;;;;39.28;20.08;;;6.30;99.90;;;;;;5037167;28;20052;-55
2023/12/18 08:39:53;;;;;;;34.08;19.80;;;6.30;99.90;;;;;;5028423;28;20025;-53
2023/12/18 08:42:19;;;;;;;35.88;19.95;;;6.30;99.90;;;;;;5025668;28;20032;-51
2023/12/18 08:44:44;;;;;;;35.72;19.73;;;6.30;99.90;;;;;;5044666;28;20029;-54
2023/12/18 08:47:10;;;;;;;38.85;20.40;;;6.30;99.90;;;;;;5042058;28;20028;-54
2023/12/18 08:49:36;;;;;;;33.67;19.83;;;6.30;99.90;;;;;;5045157;28;20017;-53
2023/12/18 08:52:02;;;;;;;34.95;18.92;;;6.30;99.90;;;;;;5043643;28;20028;-53
2023/12/18 08:54:28;;;;;;;31.58;19.70;;;6.30;99.90;;;;;;5044286;28;20029;-54
2023/12/18 08:56:53;;;;;;;37.72;21.33;;;6.40;99.90;;;;;;5044113;28;20031;-54
2023/12/18 08:59:19;;;;;;;36.92;21.17;;;6.40;99.90;;;;;;5043207;28;20018;-54
2023/12/18 09:01:45;;;;;;;41.72;22.65;;;6.40;99.90;;;;;;5044823;28;20025;-53
2023/12/18 09:04:11;;;;;;;41.42;23.33;;;6.40;99.90;;;;;;5042834;28;20295;-55
2023/12/18 09:06:37;;;;;;;37.35;21.25;;;6.40;99.90;;;;;;5044714;28;20088;-53
2023/12/18 09:09:03;;;;;;;43.38;21.38;;;6.50;99.90;;;;;;5043776;28;20036;-51
2023/12/18 09:11:33;;;;;;;42.38;22.58;;;6.50;99.90;;;;;;5023956;28;20104;-53
2023/12/18 09:14:00;;;;;;;40.95;21.50;;;6.50;99.90;;;;;;5023384;28;20029;-53
2023/12/18 09:16:26;;;;;;;38.80;22.38;;;6.50;99.90;;;;;;5025769;28;20103;-51
2023/12/18 09:18:51;;;;;;;40.30;23.77;;;6.50;99.90;;;;;;5045132;28;20473;-52
2023/12/18 09:21:17;;;;;;;40.15;22.45;;;6.60;99.90;;;;;;5043352;28;20048;-54
2023/12/18 09:23:44;;;;;;;38.28;21.95;;;6.50;99.90;;;;;;5045064;28;20431;-53
2023/12/18 09:26:12;;;;;;;40.10;22.65;;;6.50;99.90;;;;;;5043210;28;20020;-53
2023/12/18 09:28:38;;;;;;;39.90;22.20;;;6.60;99.90;;;;;;5045648;28;20021;-53
2023/12/18 09:31:05;;;;;;;43.90;22.52;;;6.60;99.90;;;;;;5044242;28;20021;-53
2023/12/18 09:33:33;;;;;;;37.83;21.55;;;6.60;99.90;;;;;;5045584;28;20035;-54
2023/12/18 09:35:59;;;;;;;42.65;21.52;;;6.60;99.90;;;;;;5044270;28;20021;-54
2023/12/18 09:38:25;;;;;;;35.17;20.85;;;6.60;99.90;;;;;;5044496;28;20048;-54
2023/12/18 09:40:50;;;;;;;37.75;19.80;;;6.60;99.90;;;;;;5045416;28;20028;-53
2023/12/18 09:43:17;;;;;;;31.98;19.77;;;6.60;99.90;;;;;;5043789;28;20108;-53
2023/12/18 09:45:46;;;;;;;32.90;19.08;;;6.70;99.90;;;;;;5044747;28;20431;-52
2023/12/18 09:48:13;;;;;;;31.90;18.65;;;6.70;99.90;;;;;;5043901;28;20025;-53
2023/12/18 09:50:39;;;;;;;34.17;18.33;;;6.70;99.90;;;;;;5045796;28;20017;-53
2023/12/18 09:53:11;;;;;;;28.65;16.63;;;6.80;99.90;;;;;;5044366;28;20021;-52
2023/12/18 09:55:37;;;;;;;30.08;17.65;;;6.80;99.90;;;;;;5021146;28;20064;-53
2023/12/18 09:58:03;;;;;;;30.05;16.50;;;6.80;99.90;;;;;;5044508;28;20053;-54
2023/12/18 10:00:29;;;;;;;27.58;16.30;;;6.80;99.90;;;;;;5045286;28;20033;-54
2023/12/18 10:02:56;;;;;;;26.77;16.88;;;6.80;99.90;;;;;;5045801;28;20415;-54
2023/12/18 10:05:22;;;;;;;30.45;17.15;;;6.70;99.90;;;;;;5031888;28;20028;-53
2023/12/18 10:07:48;;;;;;;27.52;15.95;;;6.80;99.90;;;;;;5035939;28;20021;-53
2023/12/18 10:10:15;;;;;;;26.90;15.85;;;6.80;99.90;;;;;;5042247;28;20624;-54
2023/12/18 10:12:41;;;;;;;31.13;16.15;;;6.80;99.90;;;;;;5042430;28;20021;-53
2023/12/18 10:15:09;;;;;;;25.27;16.17;;;6.80;99.90;;;;;;5034042;28;20141;-52
2023/12/18 10:17:34;;;;;;;27.42;16.98;;;6.80;99.90;;;;;;5030005;28;20114;-53
2023/12/18 10:20:03;;;;;;;26.15;15.73;;;6.80;99.90;;;;;;5034524;28;20056;-54
2023/12/18 10:22:29;;;;;;;35.22;17.90;;;6.80;99.90;;;;;;5045579;28;20036;-53
2023/12/18 10:24:58;;;;;;;27.60;14.88;;;6.80;99.90;;;;;;5034343;28;20029;-53
2023/12/18 10:27:24;;;;;;;26.13;14.88;;;6.80;99.90;;;;;;5044204;28;20021;-52
2023/12/18 10:29:50;;;;;;;28.48;15.05;;;6.80;99.90;;;;;;5014236;28;20018;-53
2023/12/18 10:32:20;;;;;;;29.88;16.33;;;6.80;99.90;;;;;;5027472;28;20026;-53
2023/12/18 10:34:46;;;;;;;25.42;14.25;;;6.80;99.90;;;;;;5022521;28;20025;-52
2023/12/18 10:37:12;;;;;;;22.75;13.55;;;6.90;99.90;;;;;;5027274;28;20100;-54
2023/12/18 10:39:42;;;;;;;25.88;14.18;;;6.80;99.90;;;;;;5026937;28;20022;-54
2023/12/18 10:42:23;;;;;;;28.00;15.88;;;6.80;99.90;;;;;;5025552;28;20028;-52
2023/12/18 10:44:50;;;;;;;19.33;13.00;;;6.80;99.90;;;;;;5026747;28;20362;-53
2023/12/18 10:47:18;;;;;;;25.80;13.18;;;6.90;99.90;;;;;;5028407;28;20347;-53
2023/12/18 10:49:45;;;;;;;18.48;11.75;;;6.90;99.90;;;;;;5045635;28;20085;-52
2023/12/18 10:52:14;;;;;;;20.73;11.90;;;6.90;99.90;;;;;;5042828;28;20091;-52
2023/12/18 10:54:40;;;;;;;21.70;12.00;;;6.90;99.90;;;;;;5039641;28;20025;-52
2023/12/18 10:57:07;;;;;;;21.05;11.43;;;7.00;99.90;;;;;;5036156;28;20020;-52
2023/12/18 10:59:35;;;;;;;18.17;10.95;;;7.00;99.90;;;;;;5026872;28;20500;-51
2023/12/18 11:02:01;;;;;;;17.73;12.07;;;7.00;99.90;;;;;;5027412;28;20561;-53
2023/12/18 11:04:29;;;;;;;18.85;11.30;;;7.00;99.90;;;;;;5027434;28;20053;-52
2023/12/18 11:06:57;;;;;;;19.60;11.65;;;7.00;99.90;;;;;;5041466;28;20056;-53
2023/12/18 11:09:22;;;;;;;21.48;11.13;;;7.10;99.90;;;;;;5034199;28;20022;-53
2023/12/18 11:11:48;;;;;;;22.98;11.30;;;7.10;99.90;;;;;;5045617;28;20079;-51
2023/12/18 11:14:45;;;;;;;19.58;11.32;;;7.10;99.90;;;;;;5036990;28;20029;-54
2023/12/18 11:17:38;;;;;;;21.40;11.40;;;7.20;99.90;;;;;;5044865;28;20056;-53
2023/12/18 11:20:28;;;;;;;15.55;11.10;;;7.30;99.90;;;;;;5045800;28;20017;-53
2023/12/18 11:22:56;;;;;;;15.07;10.50;;;7.30;99.90;;;;;;5036810;28;20029;-52
2023/12/18 11:25:35;;;;;;;19.88;10.52;;;7.30;99.90;;;;;;5044904;28;20163;-53
2023/12/18 11:28:03;;;;;;;17.35;10.55;;;7.40;99.90;;;;;;5045150;28;20207;-50
2023/12/18 11:30:30;;;;;;;16.92;10.13;;;7.50;99.90;;;;;;5044040;28;20025;-54
2023/12/18 11:32:57;;;;;;;19.20;11.00;;;7.40;99.90;;;;;;5044787;28;20475;-53
2023/12/18 11:35:31;;;;;;;15.00;9.60;;;7.40;99.90;;;;;;5037914;28;20112;-54
2023/12/18 11:38:13;;;;;;;18.10;10.02;;;7.40;99.90;;;;;;5028067;28;20323;-54
2023/12/18 11:40:44;;;;;;;19.25;9.13;;;7.40;99.90;;;;;;5023508;28;20052;-53
2023/12/18 11:43:11;;;;;;;15.23;9.63;;;7.40;99.90;;;;;;5038511;28;20025;-52
2023/12/18 11:45:42;;;;;;;15.80;8.73;;;7.40;99.90;;;;;;5029955;28;20037;-51
2023/12/18 11:48:09;;;;;;;16.00;10.00;;;7.40;99.90;;;;;;5030768;28;20033;-53
2023/12/18 11:50:37;;;;;;;17.48;9.75;;;7.50;99.90;;;;;;5034888;28;20017;-53
2023/12/18 11:53:07;;;;;;;14.55;9.10;;;7.40;99.90;;;;;;5030067;28;20044;-53
2023/12/18 11:55:53;;;;;;;12.50;9.18;;;7.60;99.90;;;;;;5029675;28;20032;-53
2023/12/18 11:58:26;;;;;;;15.27;9.60;;;7.60;99.90;;;;;;5031914;28;20036;-53
2023/12/18 12:00:52;;;;;;;15.82;9.25;;;7.70;99.90;;;;;;5049746;28;20109;-53
2023/12/18 12:03:18;;;;;;;14.27;9.15;;;7.70;99.90;;;;;;5030691;28;20542;-53
2023/12/18 12:05:46;;;;;;;14.75;9.18;;;7.80;99.90;;;;;;5026411;28;20029;-53
2023/12/18 12:08:12;;;;;;;13.52;9.18;;;7.90;99.90;;;;;;5024013;28;20013;-53
2023/12/18 12:10:46;;;;;;;13.75;9.05;;;7.90;99.90;;;;;;5031457;28;20021;-53
2023/12/18 12:13:18;;;;;;;15.27;9.15;;;7.90;99.90;;;;;;5029210;28;20355;-51
2023/12/18 12:15:54;;;;;;;12.57;8.45;;;7.90;99.90;;;;;;5028576;28;20037;-53
2023/12/18 12:18:20;;;;;;;13.18;8.30;;;8.00;99.90;;;;;;5030087;28;20049;-50
2023/12/18 12:20:46;;;;;;;14.50;8.68;;;7.90;99.90;;;;;;5029784;28;20017;-50
2023/12/18 12:23:11;;;;;;;13.68;9.23;;;7.90;99.90;;;;;;5029717;28;20036;-52
2023/12/18 12:25:38;;;;;;;14.98;9.80;;;7.80;99.90;;;;;;5028048;28;20517;-52
2023/12/18 12:28:04;;;;;;;15.07;8.60;;;7.80;99.90;;;;;;5012013;28;20465;-53
2023/12/18 12:30:30;;;;;;;14.30;9.07;;;7.80;99.90;;;;;;5029327;28;20009;-54
2023/12/18 12:32:55;;;;;;;14.90;9.00;;;7.90;99.90;;;;;;5012082;28;20017;-53
2023/12/18 12:35:21;;;;;;;20.45;9.98;;;7.90;99.90;;;;;;5029717;28;20161;-51